Terminal Aerodrome Forecast
Issued by NWS

Home | Current Version | Previous Version | Text Only | Print | Product List | Glossary On
Versions: 1 2 3 4 5 6 7 8 9 10 11 12 13 14 15 16 17 18 19 20 21
000
FTUS46 KEKA 280144 AAA
TAFCEC
TAF AMD
KCEC 280144Z 2802/2824 VRB03KT 3SM BR OVC004
      TEMPO 2802/2806 1/2SM FG VV002
     FM281100 28005KT P6SM SCT010 OVC020
     FM281800 33010KT 6SM -RA BKN010 OVC030
     FM282200 33010KT P6SM SCT010 SCT050=

USA.gov is the U.S. government's official web portal to all federal, state and local government web resources and services.